sensor_id;sensor_type;location;lat;lon;timestamp;pressure;altitude;pressure_sealevel;temperature;humidity
75555;BME280;64138;53.124;18.032;2022-11-27T00:01:38;102567.39;;;1.94;84.54
75555;BME280;64138;53.124;18.032;2022-11-27T00:04:05;102574.83;;;1.96;84.65
75555;BME280;64138;53.124;18.032;2022-11-27T00:06:33;102572.59;;;1.97;84.49
75555;BME280;64138;53.124;18.032;2022-11-27T00:09:02;102579.39;;;1.98;84.53
75555;BME280;64138;53.124;18.032;2022-11-27T00:11:30;102583.26;;;2.00;84.62
75555;BME280;64138;53.124;18.032;2022-11-27T00:13:56;102581.23;;;2.03;84.53
75555;BME280;64138;53.124;18.032;2022-11-27T00:16:23;102578.04;;;2.03;84.55
75555;BME280;64138;53.124;18.032;2022-11-27T00:18:50;102577.95;;;2.00;84.52
75555;BME280;64138;53.124;18.032;2022-11-27T00:23:44;102581.50;;;1.99;84.56
75555;BME280;64138;53.124;18.032;2022-11-27T00:26:10;102574.16;;;1.99;84.82
75555;BME280;64138;53.124;18.032;2022-11-27T00:28:36;102573.38;;;2.01;84.69
75555;BME280;64138;53.124;18.032;2022-11-27T00:31:06;102577.54;;;1.99;84.53
75555;BME280;64138;53.124;18.032;2022-11-27T00:33:32;102579.71;;;2.00;84.69
75555;BME280;64138;53.124;18.032;2022-11-27T00:36:05;102580.55;;;2.01;84.50
75555;BME280;64138;53.124;18.032;2022-11-27T00:38:32;102581.92;;;2.03;84.58
75555;BME280;64138;53.124;18.032;2022-11-27T00:41:05;102587.65;;;2.04;84.61
75555;BME280;64138;53.124;18.032;2022-11-27T00:43:32;102588.48;;;2.04;84.69
75555;BME280;64138;53.124;18.032;2022-11-27T00:45:58;102587.95;;;2.04;84.60
75555;BME280;64138;53.124;18.032;2022-11-27T00:48:24;102590.32;;;2.04;84.32
75555;BME280;64138;53.124;18.032;2022-11-27T00:50:50;102590.29;;;2.05;84.55
75555;BME280;64138;53.124;18.032;2022-11-27T00:53:16;102585.78;;;2.05;84.55
75555;BME280;64138;53.124;18.032;2022-11-27T00:55:44;102589.91;;;2.06;84.40
75555;BME280;64138;53.124;18.032;2022-11-27T00:58:10;102588.84;;;2.08;84.40
75555;BME280;64138;53.124;18.032;2022-11-27T01:00:36;102590.94;;;2.09;84.54
75555;BME280;64138;53.124;18.032;2022-11-27T01:03:02;102589.38;;;2.12;84.49
75555;BME280;64138;53.124;18.032;2022-11-27T01:05:28;102569.29;;;2.06;84.48
75555;BME280;64138;53.124;18.032;2022-11-27T01:07:53;102575.65;;;2.12;84.29
75555;BME280;64138;53.124;18.032;2022-11-27T01:10:19;102577.49;;;2.06;84.54
75555;BME280;64138;53.124;18.032;2022-11-27T01:12:48;102574.77;;;2.05;84.51
75555;BME280;64138;53.124;18.032;2022-11-27T01:15:14;102572.74;;;2.05;84.56
75555;BME280;64138;53.124;18.032;2022-11-27T01:17:40;102562.45;;;1.98;84.51
75555;BME280;64138;53.124;18.032;2022-11-27T01:20:06;102574.28;;;2.03;84.43
75555;BME280;64138;53.124;18.032;2022-11-27T01:22:32;102575.13;;;2.04;84.69
75555;BME280;64138;53.124;18.032;2022-11-27T01:24:58;102581.14;;;2.01;84.65
75555;BME280;64138;53.124;18.032;2022-11-27T01:27:24;102583.79;;;2.00;84.58
75555;BME280;64138;53.124;18.032;2022-11-27T01:29:50;102580.60;;;1.99;84.77
75555;BME280;64138;53.124;18.032;2022-11-27T01:32:16;102578.14;;;1.96;84.77
75555;BME280;64138;53.124;18.032;2022-11-27T01:34:41;102582.11;;;1.96;84.81
75555;BME280;64138;53.124;18.032;2022-11-27T01:37:07;102578.06;;;1.95;84.73
75555;BME280;64138;53.124;18.032;2022-11-27T01:39:33;102579.67;;;1.95;84.96
75555;BME280;64138;53.124;18.032;2022-11-27T01:41:59;102579.64;;;1.91;84.97
75555;BME280;64138;53.124;18.032;2022-11-27T01:47:10;102581.36;;;1.86;85.07
75555;BME280;64138;53.124;18.032;2022-11-27T01:52:09;102582.36;;;1.88;85.19
75555;BME280;64138;53.124;18.032;2022-11-27T01:54:52;102582.75;;;1.89;85.11
75555;BME280;64138;53.124;18.032;2022-11-27T01:57:25;102580.30;;;1.88;85.09
75555;BME280;64138;53.124;18.032;2022-11-27T01:59:53;102583.12;;;1.87;85.21
75555;BME280;64138;53.124;18.032;2022-11-27T02:02:20;102582.34;;;1.89;85.10
75555;BME280;64138;53.124;18.032;2022-11-27T02:04:46;102575.40;;;1.89;85.06
75555;BME280;64138;53.124;18.032;2022-11-27T02:07:12;102578.95;;;1.91;85.21
75555;BME280;64138;53.124;18.032;2022-11-27T02:09:39;102578.11;;;1.88;85.12
75555;BME280;64138;53.124;18.032;2022-11-27T02:12:15;102579.46;;;1.89;85.17
75555;BME280;64138;53.124;18.032;2022-11-27T02:15:04;102584.59;;;1.91;85.17
75555;BME280;64138;53.124;18.032;2022-11-27T02:17:47;102582.59;;;1.92;85.27
75555;BME280;64138;53.124;18.032;2022-11-27T02:20:22;102579.95;;;1.94;85.18
75555;BME280;64138;53.124;18.032;2022-11-27T02:34:27;102576.94;;;1.95;85.32
75555;BME280;64138;53.124;18.032;2022-11-27T02:37:21;102574.52;;;1.97;85.15
75555;BME280;64138;53.124;18.032;2022-11-27T02:40:03;102579.48;;;1.97;85.09
75555;BME280;64138;53.124;18.032;2022-11-27T02:42:50;102577.29;;;1.92;85.14
75555;BME280;64138;53.124;18.032;2022-11-27T02:45:21;102585.45;;;1.91;85.28
75555;BME280;64138;53.124;18.032;2022-11-27T02:47:49;102582.46;;;1.90;85.28
75555;BME280;64138;53.124;18.032;2022-11-27T02:50:24;102581.81;;;1.90;85.29
75555;BME280;64138;53.124;18.032;2022-11-27T02:52:53;102581.64;;;1.91;85.05
75555;BME280;64138;53.124;18.032;2022-11-27T02:55:25;102586.06;;;1.92;85.18
75555;BME280;64138;53.124;18.032;2022-11-27T02:57:54;102582.44;;;1.94;85.41
75555;BME280;64138;53.124;18.032;2022-11-27T03:00:21;102580.67;;;1.93;85.33
75555;BME280;64138;53.124;18.032;2022-11-27T03:02:54;102576.66;;;1.93;85.37
75555;BME280;64138;53.124;18.032;2022-11-27T03:05:25;102575.23;;;1.92;85.68
75555;BME280;64138;53.124;18.032;2022-11-27T03:08:09;102575.58;;;1.91;85.58
75555;BME280;64138;53.124;18.032;2022-11-27T03:10:51;102568.06;;;1.91;85.54
75555;BME280;64138;53.124;18.032;2022-11-27T03:13:19;102565.40;;;1.90;85.61
75555;BME280;64138;53.124;18.032;2022-11-27T03:16:27;102563.27;;;1.88;85.59
75555;BME280;64138;53.124;18.032;2022-11-27T03:19:00;102558.05;;;1.83;86.08
75555;BME280;64138;53.124;18.032;2022-11-27T03:21:36;102565.15;;;1.80;86.05
75555;BME280;64138;53.124;18.032;2022-11-27T03:24:04;102574.01;;;1.79;86.24
75555;BME280;64138;53.124;18.032;2022-11-27T03:26:30;102580.43;;;1.82;86.23
75555;BME280;64138;53.124;18.032;2022-11-27T03:28:58;102580.31;;;1.85;86.09
75555;BME280;64138;53.124;18.032;2022-11-27T03:31:25;102578.93;;;1.90;86.19
75555;BME280;64138;53.124;18.032;2022-11-27T03:33:52;102585.93;;;1.94;86.13
75555;BME280;64138;53.124;18.032;2022-11-27T03:36:20;102593.98;;;1.98;86.14
75555;BME280;64138;53.124;18.032;2022-11-27T03:38:48;102592.90;;;2.03;85.88
75555;BME280;64138;53.124;18.032;2022-11-27T03:49:43;102604.42;;;2.18;85.93
75555;BME280;64138;53.124;18.032;2022-11-27T03:55:11;102604.98;;;2.24;85.64
75555;BME280;64138;53.124;18.032;2022-11-27T03:57:59;102603.46;;;2.27;85.71
75555;BME280;64138;53.124;18.032;2022-11-27T04:00:32;102602.46;;;2.33;85.67
75555;BME280;64138;53.124;18.032;2022-11-27T04:03:01;102589.73;;;2.37;85.43
75555;BME280;64138;53.124;18.032;2022-11-27T04:05:27;102596.63;;;2.37;85.31
75555;BME280;64138;53.124;18.032;2022-11-27T04:07:53;102594.26;;;2.39;85.36
75555;BME280;64138;53.124;18.032;2022-11-27T04:10:18;102596.72;;;2.42;85.64
75555;BME280;64138;53.124;18.032;2022-11-27T04:12:44;102593.54;;;2.44;85.46
75555;BME280;64138;53.124;18.032;2022-11-27T04:15:11;102593.52;;;2.45;85.46
75555;BME280;64138;53.124;18.032;2022-11-27T04:17:37;102603.35;;;2.47;85.46
75555;BME280;64138;53.124;18.032;2022-11-27T04:20:04;102598.81;;;2.48;85.35
75555;BME280;64138;53.124;18.032;2022-11-27T04:22:30;102592.39;;;2.47;85.34
75555;BME280;64138;53.124;18.032;2022-11-27T04:24:56;102587.53;;;2.38;85.38
75555;BME280;64138;53.124;18.032;2022-11-27T04:27:22;102592.20;;;2.44;85.64
75555;BME280;64138;53.124;18.032;2022-11-27T04:29:48;102591.44;;;2.45;85.60
75555;BME280;64138;53.124;18.032;2022-11-27T04:32:14;102575.39;;;2.45;85.32
75555;BME280;64138;53.124;18.032;2022-11-27T04:34:40;102578.37;;;2.43;85.27
75555;BME280;64138;53.124;18.032;2022-11-27T04:37:06;102583.72;;;2.40;85.42
75555;BME280;64138;53.124;18.032;2022-11-27T04:39:31;102580.81;;;2.38;85.49
75555;BME280;64138;53.124;18.032;2022-11-27T04:41:57;102576.94;;;2.36;85.42
75555;BME280;64138;53.124;18.032;2022-11-27T04:44:23;102571.30;;;2.32;85.57
75555;BME280;64138;53.124;18.032;2022-11-27T04:46:49;102573.73;;;2.28;85.58
75555;BME280;64138;53.124;18.032;2022-11-27T04:49:15;102567.39;;;2.27;85.67
75555;BME280;64138;53.124;18.032;2022-11-27T04:51:41;102568.45;;;2.30;85.51
75555;BME280;64138;53.124;18.032;2022-11-27T04:54:07;102581.38;;;2.30;85.53
75555;BME280;64138;53.124;18.032;2022-11-27T04:56:33;102574.73;;;2.29;85.56
75555;BME280;64138;53.124;18.032;2022-11-27T04:59:00;102566.33;;;2.28;85.64
75555;BME280;64138;53.124;18.032;2022-11-27T05:01:25;102559.96;;;2.25;85.61
75555;BME280;64138;53.124;18.032;2022-11-27T05:03:51;102555.20;;;2.22;85.52
75555;BME280;64138;53.124;18.032;2022-11-27T05:06:17;102554.15;;;2.21;85.55
75555;BME280;64138;53.124;18.032;2022-11-27T05:08:43;102550.41;;;2.20;85.70
75555;BME280;64138;53.124;18.032;2022-11-27T05:11:11;102541.59;;;2.17;85.63
75555;BME280;64138;53.124;18.032;2022-11-27T05:13:38;102541.99;;;2.12;85.54
75555;BME280;64138;53.124;18.032;2022-11-27T05:16:05;102542.14;;;2.07;85.51
75555;BME280;64138;53.124;18.032;2022-11-27T05:18:31;102540.11;;;2.02;85.52
75555;BME280;64138;53.124;18.032;2022-11-27T05:21:02;102539.50;;;1.99;85.36
75555;BME280;64138;53.124;18.032;2022-11-27T05:23:30;102537.67;;;1.96;85.53
75555;BME280;64138;53.124;18.032;2022-11-27T05:25:56;102540.05;;;1.96;85.56
75555;BME280;64138;53.124;18.032;2022-11-27T05:28:22;102537.66;;;1.95;85.70
75555;BME280;64138;53.124;18.032;2022-11-27T05:30:49;102541.34;;;1.93;85.79
75555;BME280;64138;53.124;18.032;2022-11-27T05:33:16;102535.53;;;1.92;85.83
75555;BME280;64138;53.124;18.032;2022-11-27T05:35:43;102540.26;;;1.91;85.80
75555;BME280;64138;53.124;18.032;2022-11-27T05:38:11;102538.20;;;1.90;85.79
75555;BME280;64138;53.124;18.032;2022-11-27T05:40:38;102530.96;;;1.90;85.70
75555;BME280;64138;53.124;18.032;2022-11-27T05:43:04;102526.86;;;1.89;85.49
75555;BME280;64138;53.124;18.032;2022-11-27T05:45:30;102530.54;;;1.88;85.36
75555;BME280;64138;53.124;18.032;2022-11-27T05:47:56;102530.60;;;1.89;85.58
75555;BME280;64138;53.124;18.032;2022-11-27T05:50:22;102527.92;;;1.92;85.47
75555;BME280;64138;53.124;18.032;2022-11-27T05:52:48;102522.88;;;1.94;85.68
75555;BME280;64138;53.124;18.032;2022-11-27T05:55:14;102532.32;;;1.94;85.58
75555;BME280;64138;53.124;18.032;2022-11-27T05:57:39;102534.91;;;1.93;85.43
75555;BME280;64138;53.124;18.032;2022-11-27T06:00:06;102528.83;;;1.92;85.55
75555;BME280;64138;53.124;18.032;2022-11-27T06:02:33;102531.90;;;1.89;85.64
75555;BME280;64138;53.124;18.032;2022-11-27T06:04:59;102533.13;;;1.89;85.59
75555;BME280;64138;53.124;18.032;2022-11-27T06:07:24;102536.67;;;1.92;85.80
75555;BME280;64138;53.124;18.032;2022-11-27T06:09:50;102537.41;;;1.94;85.75
75555;BME280;64138;53.124;18.032;2022-11-27T06:12:16;102535.12;;;1.96;85.66
75555;BME280;64138;53.124;18.032;2022-11-27T06:14:42;102537.02;;;1.95;85.56
75555;BME280;64138;53.124;18.032;2022-11-27T06:17:08;102539.08;;;1.94;85.58
75555;BME280;64138;53.124;18.032;2022-11-27T06:19:34;102540.96;;;1.93;85.61
75555;BME280;64138;53.124;18.032;2022-11-27T06:22:00;102542.45;;;1.94;85.72
75555;BME280;64138;53.124;18.032;2022-11-27T06:24:26;102542.73;;;1.94;85.59
75555;BME280;64138;53.124;18.032;2022-11-27T06:26:52;102543.54;;;1.94;85.53
75555;BME280;64138;53.124;18.032;2022-11-27T06:29:18;102543.25;;;1.95;85.62
75555;BME280;64138;53.124;18.032;2022-11-27T06:31:44;102546.41;;;1.95;85.51
75555;BME280;64138;53.124;18.032;2022-11-27T06:34:10;102546.08;;;1.96;85.52
75555;BME280;64138;53.124;18.032;2022-11-27T06:36:38;102544.47;;;1.96;85.48
75555;BME280;64138;53.124;18.032;2022-11-27T06:39:07;102547.66;;;1.94;85.40
75555;BME280;64138;53.124;18.032;2022-11-27T06:41:34;102549.42;;;1.92;85.52
75555;BME280;64138;53.124;18.032;2022-11-27T06:44:01;102543.39;;;1.93;85.43
75555;BME280;64138;53.124;18.032;2022-11-27T06:46:27;102539.52;;;1.89;85.38
75555;BME280;64138;53.124;18.032;2022-11-27T06:48:56;102539.23;;;1.85;85.77
75555;BME280;64138;53.124;18.032;2022-11-27T06:51:27;102543.48;;;1.86;85.85
75555;BME280;64138;53.124;18.032;2022-11-27T06:53:54;102544.97;;;1.88;85.69
75555;BME280;64138;53.124;18.032;2022-11-27T06:56:22;102549.58;;;1.88;85.75
75555;BME280;64138;53.124;18.032;2022-11-27T06:58:56;102551.02;;;1.88;85.82
75555;BME280;64138;53.124;18.032;2022-11-27T07:01:24;102559.83;;;1.88;85.82
75555;BME280;64138;53.124;18.032;2022-11-27T07:03:51;102552.20;;;1.90;86.02
75555;BME280;64138;53.124;18.032;2022-11-27T07:06:19;102550.17;;;1.95;86.09
75555;BME280;64138;53.124;18.032;2022-11-27T07:08:46;102548.81;;;1.97;85.94
75555;BME280;64138;53.124;18.032;2022-11-27T07:11:17;102550.23;;;1.97;85.94
75555;BME280;64138;53.124;18.032;2022-11-27T07:13:45;102553.71;;;2.01;86.00
75555;BME280;64138;53.124;18.032;2022-11-27T07:16:11;102554.67;;;2.04;86.03
75555;BME280;64138;53.124;18.032;2022-11-27T07:18:40;102554.05;;;2.06;85.97
75555;BME280;64138;53.124;18.032;2022-11-27T07:21:06;102535.02;;;2.00;86.17
75555;BME280;64138;53.124;18.032;2022-11-27T07:23:33;102552.11;;;2.08;86.25
75555;BME280;64138;53.124;18.032;2022-11-27T07:26:04;102558.64;;;2.09;86.33
75555;BME280;64138;53.124;18.032;2022-11-27T07:28:30;102568.13;;;2.14;86.46
75555;BME280;64138;53.124;18.032;2022-11-27T07:30:57;102572.11;;;2.20;86.43
75555;BME280;64138;53.124;18.032;2022-11-27T07:33:24;102569.56;;;2.30;86.34
75555;BME280;64138;53.124;18.032;2022-11-27T07:36:00;102571.86;;;2.37;86.09
75555;BME280;64138;53.124;18.032;2022-11-27T07:38:27;102581.61;;;2.45;86.06
75555;BME280;64138;53.124;18.032;2022-11-27T07:40:52;102590.13;;;2.50;86.06
75555;BME280;64138;53.124;18.032;2022-11-27T07:43:18;102591.70;;;2.55;86.22
75555;BME280;64138;53.124;18.032;2022-11-27T07:45:44;102586.98;;;2.63;86.11
75555;BME280;64138;53.124;18.032;2022-11-27T07:48:10;102583.19;;;2.72;85.97
75555;BME280;64138;53.124;18.032;2022-11-27T07:50:38;102582.63;;;2.79;86.09
75555;BME280;64138;53.124;18.032;2022-11-27T07:53:04;102586.41;;;2.87;86.00
75555;BME280;64138;53.124;18.032;2022-11-27T07:55:30;102587.09;;;2.93;85.81
75555;BME280;64138;53.124;18.032;2022-11-27T07:57:55;102586.19;;;2.98;85.92
75555;BME280;64138;53.124;18.032;2022-11-27T08:00:21;102586.19;;;3.05;85.83
75555;BME280;64138;53.124;18.032;2022-11-27T08:02:47;102581.63;;;3.10;85.87
75555;BME280;64138;53.124;18.032;2022-11-27T08:05:13;102584.77;;;3.11;85.71
75555;BME280;64138;53.124;18.032;2022-11-27T08:07:39;102587.09;;;3.13;85.72
75555;BME280;64138;53.124;18.032;2022-11-27T08:10:06;102580.54;;;3.15;85.72
75555;BME280;64138;53.124;18.032;2022-11-27T08:12:32;102579.70;;;3.16;85.68
75555;BME280;64138;53.124;18.032;2022-11-27T08:14:58;102578.41;;;3.20;85.79
75555;BME280;64138;53.124;18.032;2022-11-27T08:17:24;102579.36;;;3.22;85.85
75555;BME280;64138;53.124;18.032;2022-11-27T08:19:50;102579.71;;;3.25;85.74
75555;BME280;64138;53.124;18.032;2022-11-27T08:22:16;102577.08;;;3.27;85.60
75555;BME280;64138;53.124;18.032;2022-11-27T08:24:44;102575.25;;;3.29;85.58
75555;BME280;64138;53.124;18.032;2022-11-27T08:27:10;102577.23;;;3.29;85.57
75555;BME280;64138;53.124;18.032;2022-11-27T08:29:37;102577.43;;;3.35;85.75
75555;BME280;64138;53.124;18.032;2022-11-27T08:32:03;102579.20;;;3.39;85.51
75555;BME280;64138;53.124;18.032;2022-11-27T08:34:29;102580.80;;;3.44;85.47
75555;BME280;64138;53.124;18.032;2022-11-27T08:36:55;102580.81;;;3.49;85.49
75555;BME280;64138;53.124;18.032;2022-11-27T08:39:21;102578.80;;;3.55;85.53
75555;BME280;64138;53.124;18.032;2022-11-27T08:41:47;102576.84;;;3.61;85.30
75555;BME280;64138;53.124;18.032;2022-11-27T08:44:13;102580.96;;;3.66;85.28
75555;BME280;64138;53.124;18.032;2022-11-27T08:46:39;102581.86;;;3.67;85.10
75555;BME280;64138;53.124;18.032;2022-11-27T08:49:05;102582.48;;;3.70;85.46
75555;BME280;64138;53.124;18.032;2022-11-27T08:51:30;102582.27;;;3.74;85.42
75555;BME280;64138;53.124;18.032;2022-11-27T08:53:56;102589.96;;;3.76;85.20
75555;BME280;64138;53.124;18.032;2022-11-27T08:56:24;102588.89;;;3.76;85.19
75555;BME280;64138;53.124;18.032;2022-11-27T08:58:50;102589.91;;;3.76;85.36
75555;BME280;64138;53.124;18.032;2022-11-27T09:01:22;102591.05;;;3.78;85.32
75555;BME280;64138;53.124;18.032;2022-11-27T09:03:49;102597.70;;;3.78;85.23
75555;BME280;64138;53.124;18.032;2022-11-27T09:06:27;102583.30;;;3.71;85.32
75555;BME280;64138;53.124;18.032;2022-11-27T09:08:58;102590.77;;;3.80;85.19
75555;BME280;64138;53.124;18.032;2022-11-27T09:11:25;102585.52;;;3.81;85.30
75555;BME280;64138;53.124;18.032;2022-11-27T09:13:51;102587.76;;;3.81;85.32
75555;BME280;64138;53.124;18.032;2022-11-27T09:16:19;102589.09;;;3.80;85.51
75555;BME280;64138;53.124;18.032;2022-11-27T09:18:47;102593.71;;;3.84;85.33
75555;BME280;64138;53.124;18.032;2022-11-27T09:21:15;102592.04;;;3.89;85.49
75555;BME280;64138;53.124;18.032;2022-11-27T09:23:42;102583.89;;;3.88;85.20
75555;BME280;64138;53.124;18.032;2022-11-27T09:26:10;102594.63;;;3.98;85.24
75555;BME280;64138;53.124;18.032;2022-11-27T09:28:38;102590.20;;;4.02;85.15
75555;BME280;64138;53.124;18.032;2022-11-27T09:31:05;102584.54;;;4.04;85.13
75555;BME280;64138;53.124;18.032;2022-11-27T09:33:35;102587.44;;;4.03;85.22
75555;BME280;64138;53.124;18.032;2022-11-27T09:36:09;102589.40;;;4.05;85.40
75555;BME280;64138;53.124;18.032;2022-11-27T09:38:36;102595.21;;;4.12;85.25
75555;BME280;64138;53.124;18.032;2022-11-27T09:43:44;102585.84;;;4.24;85.07
75555;BME280;64138;53.124;18.032;2022-11-27T09:46:34;102582.10;;;4.26;84.97
75555;BME280;64138;53.124;18.032;2022-11-27T09:49:04;102576.20;;;4.30;85.02
75555;BME280;64138;53.124;18.032;2022-11-27T09:52:03;102575.79;;;4.37;85.00
75555;BME280;64138;53.124;18.032;2022-11-27T09:54:37;102564.63;;;4.39;84.83
75555;BME280;64138;53.124;18.032;2022-11-27T09:57:09;102571.71;;;4.47;84.78
75555;BME280;64138;53.124;18.032;2022-11-27T09:59:42;102565.58;;;4.47;84.77
75555;BME280;64138;53.124;18.032;2022-11-27T10:02:26;102569.67;;;4.50;85.02
75555;BME280;64138;53.124;18.032;2022-11-27T10:04:53;102564.02;;;4.57;84.94
75555;BME280;64138;53.124;18.032;2022-11-27T10:07:45;102569.24;;;4.62;84.62
75555;BME280;64138;53.124;18.032;2022-11-27T10:15:50;102562.61;;;4.74;84.60
75555;BME280;64138;53.124;18.032;2022-11-27T10:18:32;102563.01;;;4.79;84.53
75555;BME280;64138;53.124;18.032;2022-11-27T10:21:32;102556.61;;;4.82;84.50
75555;BME280;64138;53.124;18.032;2022-11-27T10:24:18;102556.19;;;4.87;84.37
75555;BME280;64138;53.124;18.032;2022-11-27T10:26:49;102555.77;;;4.91;84.56
75555;BME280;64138;53.124;18.032;2022-11-27T10:29:26;102555.52;;;4.97;84.31
75555;BME280;64138;53.124;18.032;2022-11-27T10:31:56;102554.83;;;4.98;84.11
75555;BME280;64138;53.124;18.032;2022-11-27T10:37:28;102552.84;;;4.99;84.03
75555;BME280;64138;53.124;18.032;2022-11-27T10:40:00;102554.63;;;4.97;84.02
75555;BME280;64138;53.124;18.032;2022-11-27T10:45:35;102548.08;;;4.99;84.27
75555;BME280;64138;53.124;18.032;2022-11-27T10:48:02;102549.62;;;5.05;84.05
75555;BME280;64138;53.124;18.032;2022-11-27T10:50:28;102545.47;;;5.08;84.03
75555;BME280;64138;53.124;18.032;2022-11-27T10:52:58;102543.98;;;5.09;84.00
75555;BME280;64138;53.124;18.032;2022-11-27T10:58:53;102541.88;;;4.96;84.01
75555;BME280;64138;53.124;18.032;2022-11-27T11:01:22;102537.87;;;4.93;84.02
75555;BME280;64138;53.124;18.032;2022-11-27T11:03:49;102536.54;;;4.94;84.00
75555;BME280;64138;53.124;18.032;2022-11-27T11:06:22;102532.05;;;4.95;84.01
75555;BME280;64138;53.124;18.032;2022-11-27T11:09:05;102524.88;;;4.99;84.10
75555;BME280;64138;53.124;18.032;2022-11-27T11:11:31;102516.16;;;5.01;84.12
75555;BME280;64138;53.124;18.032;2022-11-27T11:13:57;102511.90;;;5.02;83.85
75555;BME280;64138;53.124;18.032;2022-11-27T11:16:26;102511.51;;;5.02;84.03
75555;BME280;64138;53.124;18.032;2022-11-27T11:18:56;102508.92;;;5.05;84.20
75555;BME280;64138;53.124;18.032;2022-11-27T11:21:28;102508.80;;;5.10;84.03
75555;BME280;64138;53.124;18.032;2022-11-27T11:24:21;102504.96;;;5.14;83.86
75555;BME280;64138;53.124;18.032;2022-11-27T11:27:28;102505.81;;;5.16;83.66
75555;BME280;64138;53.124;18.032;2022-11-27T11:29:59;102507.45;;;5.14;83.53
75555;BME280;64138;53.124;18.032;2022-11-27T11:32:45;102506.81;;;5.12;83.50
75555;BME280;64138;53.124;18.032;2022-11-27T11:37:55;102503.58;;;5.12;83.93
75555;BME280;64138;53.124;18.032;2022-11-27T11:40:28;102500.85;;;5.13;83.71
75555;BME280;64138;53.124;18.032;2022-11-27T11:45:27;102496.84;;;5.15;83.48
75555;BME280;64138;53.124;18.032;2022-11-27T11:47:56;102492.99;;;5.17;83.56
75555;BME280;64138;53.124;18.032;2022-11-27T11:50:34;102496.20;;;5.22;83.65
75555;BME280;64138;53.124;18.032;2022-11-27T11:53:11;102493.82;;;5.26;83.66
75555;BME280;64138;53.124;18.032;2022-11-27T12:06:43;102484.35;;;5.55;83.37
75555;BME280;64138;53.124;18.032;2022-11-27T12:12:15;102492.47;;;5.47;83.30
75555;BME280;64138;53.124;18.032;2022-11-27T12:15:16;102496.19;;;5.46;83.28
75555;BME280;64138;53.124;18.032;2022-11-27T12:18:16;102492.50;;;5.46;83.37
75555;BME280;64138;53.124;18.032;2022-11-27T12:21:37;102481.21;;;5.39;83.44
75555;BME280;64138;53.124;18.032;2022-11-27T12:23:56;102488.85;;;5.43;83.24
75555;BME280;64138;53.124;18.032;2022-11-27T12:26:47;102485.88;;;5.40;83.24
75555;BME280;64138;53.124;18.032;2022-11-27T12:40:31;102477.38;;;5.42;83.32
75555;BME280;64138;53.124;18.032;2022-11-27T12:43:22;102473.83;;;5.44;83.32
75555;BME280;64138;53.124;18.032;2022-11-27T12:46:03;102466.89;;;5.47;83.27
75555;BME280;64138;53.124;18.032;2022-11-27T12:48:41;102464.40;;;5.45;83.12
75555;BME280;64138;53.124;18.032;2022-11-27T12:51:28;102463.70;;;5.45;83.12
75555;BME280;64138;53.124;18.032;2022-11-27T12:54:08;102462.31;;;5.40;83.37
75555;BME280;64138;53.124;18.032;2022-11-27T12:56:45;102465.63;;;5.34;83.41
75555;BME280;64138;53.124;18.032;2022-11-27T12:59:24;102470.95;;;5.26;83.55
75555;BME280;64138;53.124;18.032;2022-11-27T13:02:00;102478.73;;;5.23;83.58
75555;BME280;64138;53.124;18.032;2022-11-27T13:04:34;102468.05;;;5.13;83.59
75555;BME280;64138;53.124;18.032;2022-11-27T13:07:17;102478.57;;;5.20;83.79
75555;BME280;64138;53.124;18.032;2022-11-27T13:10:11;102479.73;;;5.25;83.56
75555;BME280;64138;53.124;18.032;2022-11-27T13:12:50;102478.60;;;5.29;83.33
75555;BME280;64138;53.124;18.032;2022-11-27T13:15:23;102475.27;;;5.29;83.56
75555;BME280;64138;53.124;18.032;2022-11-27T13:18:02;102481.48;;;5.32;83.57
75555;BME280;64138;53.124;18.032;2022-11-27T13:20:33;102481.49;;;5.32;83.67
75555;BME280;64138;53.124;18.032;2022-11-27T13:23:01;102486.00;;;5.33;83.70
75555;BME280;64138;53.124;18.032;2022-11-27T13:25:28;102487.88;;;5.34;83.60
75555;BME280;64138;53.124;18.032;2022-11-27T13:27:56;102487.77;;;5.33;83.64
75555;BME280;64138;53.124;18.032;2022-11-27T13:30:25;102487.25;;;5.38;83.48
75555;BME280;64138;53.124;18.032;2022-11-27T13:32:55;102482.43;;;5.41;83.40
75555;BME280;64138;53.124;18.032;2022-11-27T13:35:28;102478.98;;;5.39;83.41
75555;BME280;64138;53.124;18.032;2022-11-27T13:40:41;102481.30;;;5.37;83.31
75555;BME280;64138;53.124;18.032;2022-11-27T13:43:41;102475.85;;;5.36;83.65
75555;BME280;64138;53.124;18.032;2022-11-27T13:46:24;102472.57;;;5.37;83.49
75555;BME280;64138;53.124;18.032;2022-11-27T13:48:54;102473.51;;;5.37;83.53
75555;BME280;64138;53.124;18.032;2022-11-27T13:51:27;102473.39;;;5.38;83.53
75555;BME280;64138;53.124;18.032;2022-11-27T13:54:12;102471.83;;;5.40;83.51
75555;BME280;64138;53.124;18.032;2022-11-27T13:56:39;102470.75;;;5.40;83.73
75555;BME280;64138;53.124;18.032;2022-11-27T13:59:18;102469.23;;;5.40;83.64
75555;BME280;64138;53.124;18.032;2022-11-27T14:02:05;102451.39;;;5.37;83.49
75555;BME280;64138;53.124;18.032;2022-11-27T14:04:32;102462.10;;;5.41;83.50
75555;BME280;64138;53.124;18.032;2022-11-27T14:07:04;102470.16;;;5.38;83.48
75555;BME280;64138;53.124;18.032;2022-11-27T14:09:53;102465.92;;;5.35;83.48
75555;BME280;64138;53.124;18.032;2022-11-27T14:14:57;102461.25;;;5.40;83.56
75555;BME280;64138;53.124;18.032;2022-11-27T14:17:37;102456.56;;;5.41;83.49
75555;BME280;64138;53.124;18.032;2022-11-27T14:25:18;102459.68;;;5.26;83.59
75555;BME280;64138;53.124;18.032;2022-11-27T14:27:44;102457.75;;;5.22;83.67
75555;BME280;64138;53.124;18.032;2022-11-27T14:30:31;102456.69;;;5.18;83.59
75555;BME280;64138;53.124;18.032;2022-11-27T14:32:57;102454.85;;;5.15;83.70
75555;BME280;64138;53.124;18.032;2022-11-27T14:35:26;102455.88;;;5.11;83.62
75555;BME280;64138;53.124;18.032;2022-11-27T14:37:52;102455.74;;;5.10;83.64